Airfield :
LOGIN :

Register | Disclaimer

   EN    FR    IT 

 










Legend :    VFR   Marginal VFR   IFR   Intensive IFR   Very Intensive IFR
Visi :
Ceiling :
>= 8 km
>= 3000ft
5 to 8 km
1000 to 3000 ft
1500m to 5 km
500 to 1000 ft
800 to 1500m
200 to 500 ft
< 800m
< 200 ft
Symbols :   Thunderstorms  Fog  Heavy snow  Heavy precipitations  Wind > 20 kt
SIGMETs :     Misc.  Thunderstorms  Icing  Turbulence  Mountain Waves  Volcanic Ashes







- Airport Elevation : 628 ft
- IATA code : CMR
- Download approach charts


LFGA - Colmar-Houssen

EXPIRED METARs :
  • 241430Z AUTO 23010KT CAVOK 29/13 Q1016
  • 241400Z AUTO 25009KT 180V330 CAVOK 29/12 Q1016
  • 241330Z AUTO 23006KT 170V300 CAVOK 28/13 Q1016
  • 241300Z AUTO 19010KT 160V230 9999 SCT058 29/13 Q1017
  • 241230Z AUTO 17010KT 140V210 CAVOK 29/14 Q1017
  • 241200Z AUTO 20008KT 140V290 CAVOK 27/14 Q1017

TAF N/A
No reported NOTAMs for that airfield.
1 SIGMET reported for the Reims FIR (LFEE) :
 
Severe turbulence
LFEE SIGMET 1 VALID 250400/250800 LFPW
LFEE REIMS FIR/UIR SEV TURB FCST WI N4930 E00615 - N4900 E00800 - N4630 E00615 - N4645 E00500 FL300/370 MOV SE 15KT NC=



MET'MAP, your aeronautical weather chart ! - Copyright ORBIFLY December 2007 - Disclaimer

ORBIFLY MET'MAP TEAM :

Programming & Development : Alexandra Zaïnal
Concept & Development : Baudouin d'Aumeries
Co-Development & Prog : Marc-Olivier Méhu
Technical & hardware support : Manuel Goepfert

Contact : metmap@orbifly.com




SOURCES & CREDITS :

   NOAA